sensor_id;sensor_type;location;lat;lon;timestamp;temperature;humidity
38936;DHT22;66589;47.458;9.644;2023-03-29T00:01:59;8.60;54.50
38936;DHT22;66589;47.458;9.644;2023-03-29T00:04:25;8.60;53.90
38936;DHT22;66589;47.458;9.644;2023-03-29T00:06:52;8.50;54.50
38936;DHT22;66589;47.458;9.644;2023-03-29T00:09:18;8.50;54.10
38936;DHT22;66589;47.458;9.644;2023-03-29T00:11:44;8.50;54.20
38936;DHT22;66589;47.458;9.644;2023-03-29T00:14:10;8.40;55.70
38936;DHT22;66589;47.458;9.644;2023-03-29T00:16:36;8.40;55.50
38936;DHT22;66589;47.458;9.644;2023-03-29T00:19:02;8.40;55.10
38936;DHT22;66589;47.458;9.644;2023-03-29T00:21:28;8.40;55.60
38936;DHT22;66589;47.458;9.644;2023-03-29T00:23:55;8.40;56.80
38936;DHT22;66589;47.458;9.644;2023-03-29T00:26:21;8.40;55.30
38936;DHT22;66589;47.458;9.644;2023-03-29T00:28:47;8.40;57.90
38936;DHT22;66589;47.458;9.644;2023-03-29T00:31:15;8.40;56.60
38936;DHT22;66589;47.458;9.644;2023-03-29T00:33:42;8.40;56.30
38936;DHT22;66589;47.458;9.644;2023-03-29T00:36:09;8.40;58.00
38936;DHT22;66589;47.458;9.644;2023-03-29T00:38:35;8.40;57.00
38936;DHT22;66589;47.458;9.644;2023-03-29T00:41:01;8.50;56.90
38936;DHT22;66589;47.458;9.644;2023-03-29T00:43:28;8.50;56.80
38936;DHT22;66589;47.458;9.644;2023-03-29T00:45:54;8.50;57.60
38936;DHT22;66589;47.458;9.644;2023-03-29T00:48:22;8.50;56.80
38936;DHT22;66589;47.458;9.644;2023-03-29T00:51:01;8.60;57.30
38936;DHT22;66589;47.458;9.644;2023-03-29T00:56:02;8.60;58.40
38936;DHT22;66589;47.458;9.644;2023-03-29T00:58:41;8.70;56.70
38936;DHT22;66589;47.458;9.644;2023-03-29T01:01:16;8.60;55.80
38936;DHT22;66589;47.458;9.644;2023-03-29T01:04:01;8.60;58.30
38936;DHT22;66589;47.458;9.644;2023-03-29T01:06:31;8.60;58.30
38936;DHT22;66589;47.458;9.644;2023-03-29T01:09:02;8.60;58.00
38936;DHT22;66589;47.458;9.644;2023-03-29T01:11:50;8.60;57.10
38936;DHT22;66589;47.458;9.644;2023-03-29T01:14:34;8.50;59.10
38936;DHT22;66589;47.458;9.644;2023-03-29T01:17:02;8.50;61.00
38936;DHT22;66589;47.458;9.644;2023-03-29T01:19:32;8.50;62.80
38936;DHT22;66589;47.458;9.644;2023-03-29T01:25:31;8.50;60.70
38936;DHT22;66589;47.458;9.644;2023-03-29T01:28:07;8.50;60.20
38936;DHT22;66589;47.458;9.644;2023-03-29T01:30:45;8.50;63.60
38936;DHT22;66589;47.458;9.644;2023-03-29T01:33:20;8.50;62.40
38936;DHT22;66589;47.458;9.644;2023-03-29T01:36:02;8.60;63.00
38936;DHT22;66589;47.458;9.644;2023-03-29T01:38:29;8.50;65.40
38936;DHT22;66589;47.458;9.644;2023-03-29T01:41:00;8.50;66.10
38936;DHT22;66589;47.458;9.644;2023-03-29T01:43:54;8.50;71.50
38936;DHT22;66589;47.458;9.644;2023-03-29T01:46:40;8.50;69.20
38936;DHT22;66589;47.458;9.644;2023-03-29T01:49:19;8.30;70.30
38936;DHT22;66589;47.458;9.644;2023-03-29T01:51:54;8.20;71.20
38936;DHT22;66589;47.458;9.644;2023-03-29T01:54:30;8.10;70.50
38936;DHT22;66589;47.458;9.644;2023-03-29T01:56:58;8.00;72.30
38936;DHT22;66589;47.458;9.644;2023-03-29T01:59:30;8.00;72.90
38936;DHT22;66589;47.458;9.644;2023-03-29T02:01:59;7.90;73.70
38936;DHT22;66589;47.458;9.644;2023-03-29T02:04:32;8.00;72.30
38936;DHT22;66589;47.458;9.644;2023-03-29T02:07:01;7.90;73.30
38936;DHT22;66589;47.458;9.644;2023-03-29T02:09:28;8.00;73.20
38936;DHT22;66589;47.458;9.644;2023-03-29T02:11:57;8.00;73.50
38936;DHT22;66589;47.458;9.644;2023-03-29T02:14:25;8.00;74.00
38936;DHT22;66589;47.458;9.644;2023-03-29T02:16:50;8.00;73.40
38936;DHT22;66589;47.458;9.644;2023-03-29T02:19:17;8.10;72.50
38936;DHT22;66589;47.458;9.644;2023-03-29T02:21:49;8.20;72.30
38936;DHT22;66589;47.458;9.644;2023-03-29T02:24:18;8.20;72.00
38936;DHT22;66589;47.458;9.644;2023-03-29T02:26:46;8.20;71.50
38936;DHT22;66589;47.458;9.644;2023-03-29T02:29:12;8.20;71.60
38936;DHT22;66589;47.458;9.644;2023-03-29T02:31:58;8.20;73.00
38936;DHT22;66589;47.458;9.644;2023-03-29T02:34:35;8.10;71.80
38936;DHT22;66589;47.458;9.644;2023-03-29T02:37:06;8.10;72.80
38936;DHT22;66589;47.458;9.644;2023-03-29T02:39:35;8.00;72.40
38936;DHT22;66589;47.458;9.644;2023-03-29T02:42:02;8.10;73.00
38936;DHT22;66589;47.458;9.644;2023-03-29T02:44:30;8.00;73.10
38936;DHT22;66589;47.458;9.644;2023-03-29T02:47:01;7.90;73.30
38936;DHT22;66589;47.458;9.644;2023-03-29T02:49:27;7.90;73.90
38936;DHT22;66589;47.458;9.644;2023-03-29T02:51:56;7.90;75.20
38936;DHT22;66589;47.458;9.644;2023-03-29T02:54:26;7.90;73.80
38936;DHT22;66589;47.458;9.644;2023-03-29T02:56:59;7.90;73.80
38936;DHT22;66589;47.458;9.644;2023-03-29T02:59:26;7.90;74.10
38936;DHT22;66589;47.458;9.644;2023-03-29T03:01:51;7.90;74.50
38936;DHT22;66589;47.458;9.644;2023-03-29T03:04:18;7.90;74.10
38936;DHT22;66589;47.458;9.644;2023-03-29T03:06:45;8.00;74.50
38936;DHT22;66589;47.458;9.644;2023-03-29T03:09:11;8.00;74.50
38936;DHT22;66589;47.458;9.644;2023-03-29T03:11:37;8.10;74.10
38936;DHT22;66589;47.458;9.644;2023-03-29T03:14:02;8.10;75.30
38936;DHT22;66589;47.458;9.644;2023-03-29T03:16:28;8.10;76.10
38936;DHT22;66589;47.458;9.644;2023-03-29T03:18:54;8.10;73.80
38936;DHT22;66589;47.458;9.644;2023-03-29T03:21:21;8.20;75.00
38936;DHT22;66589;47.458;9.644;2023-03-29T03:23:46;8.20;75.50
38936;DHT22;66589;47.458;9.644;2023-03-29T03:26:13;8.20;74.40
38936;DHT22;66589;47.458;9.644;2023-03-29T03:28:39;8.20;74.70
38936;DHT22;66589;47.458;9.644;2023-03-29T03:31:05;8.10;75.40
38936;DHT22;66589;47.458;9.644;2023-03-29T03:33:31;8.10;75.60
38936;DHT22;66589;47.458;9.644;2023-03-29T03:35:57;8.00;75.70
38936;DHT22;66589;47.458;9.644;2023-03-29T03:38:31;8.10;75.40
38936;DHT22;66589;47.458;9.644;2023-03-29T03:40:58;8.10;76.10
38936;DHT22;66589;47.458;9.644;2023-03-29T03:43:24;8.20;73.80
38936;DHT22;66589;47.458;9.644;2023-03-29T03:45:50;8.10;75.60
38936;DHT22;66589;47.458;9.644;2023-03-29T03:48:17;8.10;75.40
38936;DHT22;66589;47.458;9.644;2023-03-29T03:50:51;8.20;74.60
38936;DHT22;66589;47.458;9.644;2023-03-29T03:53:17;8.10;74.50
38936;DHT22;66589;47.458;9.644;2023-03-29T03:55:49;8.10;75.60
38936;DHT22;66589;47.458;9.644;2023-03-29T03:58:16;8.10;74.80
38936;DHT22;66589;47.458;9.644;2023-03-29T04:00:42;8.20;75.90
38936;DHT22;66589;47.458;9.644;2023-03-29T04:03:09;8.20;73.90
38936;DHT22;66589;47.458;9.644;2023-03-29T04:05:39;8.20;75.30
38936;DHT22;66589;47.458;9.644;2023-03-29T04:08:05;8.20;74.70
38936;DHT22;66589;47.458;9.644;2023-03-29T04:10:32;8.20;74.50
38936;DHT22;66589;47.458;9.644;2023-03-29T04:12:59;8.20;74.50
38936;DHT22;66589;47.458;9.644;2023-03-29T04:15:30;8.30;74.60
38936;DHT22;66589;47.458;9.644;2023-03-29T04:17:56;8.30;73.30
38936;DHT22;66589;47.458;9.644;2023-03-29T04:20:22;8.30;74.40
38936;DHT22;66589;47.458;9.644;2023-03-29T04:22:49;8.40;73.10
38936;DHT22;66589;47.458;9.644;2023-03-29T04:25:15;8.30;73.70
38936;DHT22;66589;47.458;9.644;2023-03-29T04:27:41;8.40;74.20
38936;DHT22;66589;47.458;9.644;2023-03-29T04:30:07;8.50;73.90
38936;DHT22;66589;47.458;9.644;2023-03-29T04:32:34;8.50;73.70
38936;DHT22;66589;47.458;9.644;2023-03-29T04:35:00;8.50;73.40
38936;DHT22;66589;47.458;9.644;2023-03-29T04:37:27;8.50;73.10
38936;DHT22;66589;47.458;9.644;2023-03-29T04:39:54;8.60;73.80
38936;DHT22;66589;47.458;9.644;2023-03-29T04:42:20;8.60;74.00
38936;DHT22;66589;47.458;9.644;2023-03-29T04:44:45;8.50;74.20
38936;DHT22;66589;47.458;9.644;2023-03-29T04:47:11;8.50;74.10
38936;DHT22;66589;47.458;9.644;2023-03-29T04:49:38;8.50;73.40
38936;DHT22;66589;47.458;9.644;2023-03-29T04:52:04;8.50;73.30
38936;DHT22;66589;47.458;9.644;2023-03-29T04:54:30;8.60;73.50
38936;DHT22;66589;47.458;9.644;2023-03-29T04:56:56;8.60;73.70
38936;DHT22;66589;47.458;9.644;2023-03-29T04:59:22;8.60;73.20
38936;DHT22;66589;47.458;9.644;2023-03-29T05:01:47;8.60;74.20
38936;DHT22;66589;47.458;9.644;2023-03-29T05:04:13;8.70;71.90
38936;DHT22;66589;47.458;9.644;2023-03-29T05:06:40;8.70;72.20
38936;DHT22;66589;47.458;9.644;2023-03-29T05:09:06;8.70;72.70
38936;DHT22;66589;47.458;9.644;2023-03-29T05:11:33;8.70;71.70
38936;DHT22;66589;47.458;9.644;2023-03-29T05:13:59;8.80;72.40
38936;DHT22;66589;47.458;9.644;2023-03-29T05:16:30;8.80;70.50
38936;DHT22;66589;47.458;9.644;2023-03-29T05:18:57;8.80;70.20
38936;DHT22;66589;47.458;9.644;2023-03-29T05:21:23;8.70;70.90
38936;DHT22;66589;47.458;9.644;2023-03-29T05:23:51;8.60;71.70
38936;DHT22;66589;47.458;9.644;2023-03-29T05:26:17;8.50;72.00
38936;DHT22;66589;47.458;9.644;2023-03-29T05:28:43;8.40;75.10
38936;DHT22;66589;47.458;9.644;2023-03-29T05:31:09;8.30;74.40
38936;DHT22;66589;47.458;9.644;2023-03-29T05:33:35;8.20;75.10
38936;DHT22;66589;47.458;9.644;2023-03-29T05:36:03;8.30;75.70
38936;DHT22;66589;47.458;9.644;2023-03-29T05:38:29;8.30;74.90
38936;DHT22;66589;47.458;9.644;2023-03-29T05:40:55;8.30;73.90
38936;DHT22;66589;47.458;9.644;2023-03-29T05:43:22;8.30;74.60
38936;DHT22;66589;47.458;9.644;2023-03-29T05:45:47;8.30;74.60
38936;DHT22;66589;47.458;9.644;2023-03-29T05:48:13;8.30;74.60
38936;DHT22;66589;47.458;9.644;2023-03-29T05:50:38;8.40;74.50
38936;DHT22;66589;47.458;9.644;2023-03-29T05:53:04;8.50;74.10
38936;DHT22;66589;47.458;9.644;2023-03-29T05:55:30;8.60;74.10
38936;DHT22;66589;47.458;9.644;2023-03-29T05:57:55;8.50;74.20
38936;DHT22;66589;47.458;9.644;2023-03-29T06:00:21;8.70;73.50
38936;DHT22;66589;47.458;9.644;2023-03-29T06:02:50;8.70;73.60
38936;DHT22;66589;47.458;9.644;2023-03-29T06:05:20;8.80;73.50
38936;DHT22;66589;47.458;9.644;2023-03-29T06:07:45;8.90;75.50
38936;DHT22;66589;47.458;9.644;2023-03-29T06:10:13;9.00;73.70
38936;DHT22;66589;47.458;9.644;2023-03-29T06:12:40;9.10;74.10
38936;DHT22;66589;47.458;9.644;2023-03-29T06:15:06;9.20;72.60
38936;DHT22;66589;47.458;9.644;2023-03-29T06:17:33;9.30;71.40
38936;DHT22;66589;47.458;9.644;2023-03-29T06:19:59;9.30;71.50
38936;DHT22;66589;47.458;9.644;2023-03-29T06:22:25;9.30;71.40
38936;DHT22;66589;47.458;9.644;2023-03-29T06:24:52;9.40;70.40
38936;DHT22;66589;47.458;9.644;2023-03-29T06:27:18;9.40;70.60
38936;DHT22;66589;47.458;9.644;2023-03-29T06:29:43;9.50;71.00
38936;DHT22;66589;47.458;9.644;2023-03-29T06:32:10;9.50;68.40
38936;DHT22;66589;47.458;9.644;2023-03-29T06:34:36;9.50;69.60
38936;DHT22;66589;47.458;9.644;2023-03-29T06:37:02;9.50;70.50
38936;DHT22;66589;47.458;9.644;2023-03-29T06:39:28;9.30;71.50
38936;DHT22;66589;47.458;9.644;2023-03-29T06:41:54;9.30;71.40
38936;DHT22;66589;47.458;9.644;2023-03-29T06:44:20;9.30;72.30
38936;DHT22;66589;47.458;9.644;2023-03-29T06:46:46;9.30;72.80
38936;DHT22;66589;47.458;9.644;2023-03-29T06:49:12;9.30;73.50
38936;DHT22;66589;47.458;9.644;2023-03-29T06:51:38;9.40;73.50
38936;DHT22;66589;47.458;9.644;2023-03-29T06:54:04;9.50;74.00
38936;DHT22;66589;47.458;9.644;2023-03-29T06:56:30;9.50;74.00
38936;DHT22;66589;47.458;9.644;2023-03-29T06:58:56;9.60;73.80
38936;DHT22;66589;47.458;9.644;2023-03-29T07:01:22;9.60;74.50
38936;DHT22;66589;47.458;9.644;2023-03-29T07:03:48;9.70;73.60
38936;DHT22;66589;47.458;9.644;2023-03-29T07:06:14;9.60;73.40
38936;DHT22;66589;47.458;9.644;2023-03-29T07:08:42;9.60;73.10
38936;DHT22;66589;47.458;9.644;2023-03-29T07:11:13;9.60;73.70
38936;DHT22;66589;47.458;9.644;2023-03-29T07:13:40;9.70;72.60
38936;DHT22;66589;47.458;9.644;2023-03-29T07:16:08;9.80;74.30
38936;DHT22;66589;47.458;9.644;2023-03-29T07:18:38;9.80;73.20
38936;DHT22;66589;47.458;9.644;2023-03-29T07:21:04;9.90;73.20
38936;DHT22;66589;47.458;9.644;2023-03-29T07:23:30;9.90;72.90
38936;DHT22;66589;47.458;9.644;2023-03-29T07:25:56;9.90;74.00
38936;DHT22;66589;47.458;9.644;2023-03-29T07:28:21;9.90;73.10
38936;DHT22;66589;47.458;9.644;2023-03-29T07:30:47;9.90;73.40
38936;DHT22;66589;47.458;9.644;2023-03-29T07:33:14;10.00;73.60
38936;DHT22;66589;47.458;9.644;2023-03-29T07:35:40;9.90;72.80
38936;DHT22;66589;47.458;9.644;2023-03-29T07:38:08;10.00;73.70
38936;DHT22;66589;47.458;9.644;2023-03-29T07:40:34;10.00;74.20
38936;DHT22;66589;47.458;9.644;2023-03-29T07:43:00;10.10;72.80
38936;DHT22;66589;47.458;9.644;2023-03-29T07:45:31;10.20;73.00
38936;DHT22;66589;47.458;9.644;2023-03-29T07:47:58;10.20;72.50
38936;DHT22;66589;47.458;9.644;2023-03-29T07:50:24;10.30;72.10
38936;DHT22;66589;47.458;9.644;2023-03-29T07:52:50;10.40;72.50
38936;DHT22;66589;47.458;9.644;2023-03-29T07:55:16;10.60;71.30
38936;DHT22;66589;47.458;9.644;2023-03-29T07:57:42;10.70;71.50
38936;DHT22;66589;47.458;9.644;2023-03-29T08:00:10;10.70;70.00
38936;DHT22;66589;47.458;9.644;2023-03-29T08:02:45;10.80;69.90
38936;DHT22;66589;47.458;9.644;2023-03-29T08:05:13;10.80;70.20
38936;DHT22;66589;47.458;9.644;2023-03-29T08:07:43;10.90;69.80
38936;DHT22;66589;47.458;9.644;2023-03-29T08:10:19;10.90;70.60
38936;DHT22;66589;47.458;9.644;2023-03-29T08:12:47;10.90;70.40
38936;DHT22;66589;47.458;9.644;2023-03-29T08:15:13;11.00;69.70
38936;DHT22;66589;47.458;9.644;2023-03-29T08:17:40;11.00;69.50
38936;DHT22;66589;47.458;9.644;2023-03-29T08:20:08;11.10;69.70
38936;DHT22;66589;47.458;9.644;2023-03-29T08:22:35;11.20;69.30
38936;DHT22;66589;47.458;9.644;2023-03-29T08:25:01;11.20;68.70
38936;DHT22;66589;47.458;9.644;2023-03-29T08:27:30;11.20;68.00
38936;DHT22;66589;47.458;9.644;2023-03-29T08:29:56;11.20;68.00
38936;DHT22;66589;47.458;9.644;2023-03-29T08:32:22;11.20;68.40
38936;DHT22;66589;47.458;9.644;2023-03-29T08:34:47;11.20;67.40
38936;DHT22;66589;47.458;9.644;2023-03-29T08:37:13;11.20;68.80
38936;DHT22;66589;47.458;9.644;2023-03-29T08:39:39;11.30;67.60
38936;DHT22;66589;47.458;9.644;2023-03-29T08:49:52;11.20;67.70
38936;DHT22;66589;47.458;9.644;2023-03-29T08:52:37;11.20;69.30
38936;DHT22;66589;47.458;9.644;2023-03-29T08:55:09;11.30;68.20
38936;DHT22;66589;47.458;9.644;2023-03-29T08:57:44;11.30;68.00
38936;DHT22;66589;47.458;9.644;2023-03-29T09:02:44;11.50;67.90
38936;DHT22;66589;47.458;9.644;2023-03-29T09:05:29;11.60;66.80
38936;DHT22;66589;47.458;9.644;2023-03-29T09:07:58;11.80;67.10
38936;DHT22;66589;47.458;9.644;2023-03-29T09:10:36;11.80;65.30
38936;DHT22;66589;47.458;9.644;2023-03-29T09:15:56;11.90;66.20
38936;DHT22;66589;47.458;9.644;2023-03-29T09:18:57;11.90;66.00
38936;DHT22;66589;47.458;9.644;2023-03-29T09:21:42;12.00;66.50
38936;DHT22;66589;47.458;9.644;2023-03-29T09:27:26;12.50;66.00
38936;DHT22;66589;47.458;9.644;2023-03-29T09:30:03;12.70;64.70
38936;DHT22;66589;47.458;9.644;2023-03-29T09:32:39;12.70;64.80
38936;DHT22;66589;47.458;9.644;2023-03-29T09:35:23;12.70;64.20
38936;DHT22;66589;47.458;9.644;2023-03-29T09:37:51;12.70;65.40
38936;DHT22;66589;47.458;9.644;2023-03-29T09:40:56;12.60;65.10
38936;DHT22;66589;47.458;9.644;2023-03-29T09:43:37;12.60;63.80
38936;DHT22;66589;47.458;9.644;2023-03-29T09:46:10;12.70;64.80
38936;DHT22;66589;47.458;9.644;2023-03-29T09:48:41;12.90;63.40
38936;DHT22;66589;47.458;9.644;2023-03-29T09:51:08;13.00;64.30
38936;DHT22;66589;47.458;9.644;2023-03-29T09:53:35;13.10;63.30
38936;DHT22;66589;47.458;9.644;2023-03-29T09:56:01;13.30;63.40
38936;DHT22;66589;47.458;9.644;2023-03-29T09:58:28;13.50;63.20
38936;DHT22;66589;47.458;9.644;2023-03-29T10:01:03;13.70;62.60
38936;DHT22;66589;47.458;9.644;2023-03-29T10:03:31;14.20;60.70
38936;DHT22;66589;47.458;9.644;2023-03-29T10:06:00;14.40;61.00
38936;DHT22;66589;47.458;9.644;2023-03-29T10:08:28;14.70;61.00
38936;DHT22;66589;47.458;9.644;2023-03-29T10:10:56;14.90;59.10
38936;DHT22;66589;47.458;9.644;2023-03-29T10:13:28;14.90;58.80
38936;DHT22;66589;47.458;9.644;2023-03-29T10:16:01;14.70;60.20
38936;DHT22;66589;47.458;9.644;2023-03-29T10:18:30;14.80;58.50
38936;DHT22;66589;47.458;9.644;2023-03-29T10:21:01;14.90;58.50
38936;DHT22;66589;47.458;9.644;2023-03-29T10:23:33;14.90;58.40
38936;DHT22;66589;47.458;9.644;2023-03-29T10:26:01;14.80;59.20
38936;DHT22;66589;47.458;9.644;2023-03-29T10:28:30;14.80;58.80
38936;DHT22;66589;47.458;9.644;2023-03-29T10:30:58;14.80;58.90
38936;DHT22;66589;47.458;9.644;2023-03-29T10:33:32;14.70;58.30
38936;DHT22;66589;47.458;9.644;2023-03-29T10:35:59;14.70;58.80
38936;DHT22;66589;47.458;9.644;2023-03-29T10:38:27;14.60;60.40
38936;DHT22;66589;47.458;9.644;2023-03-29T10:41:01;14.50;59.80
38936;DHT22;66589;47.458;9.644;2023-03-29T10:43:35;14.30;59.60
38936;DHT22;66589;47.458;9.644;2023-03-29T10:46:32;14.30;60.00
38936;DHT22;66589;47.458;9.644;2023-03-29T10:49:00;14.20;60.00
38936;DHT22;66589;47.458;9.644;2023-03-29T10:51:29;14.30;60.20
38936;DHT22;66589;47.458;9.644;2023-03-29T10:53:58;14.30;60.80
38936;DHT22;66589;47.458;9.644;2023-03-29T10:56:35;14.40;61.10
38936;DHT22;66589;47.458;9.644;2023-03-29T11:10:32;14.30;61.90
38936;DHT22;66589;47.458;9.644;2023-03-29T11:21:25;14.80;59.90
38936;DHT22;66589;47.458;9.644;2023-03-29T11:29:55;15.50;59.50
38936;DHT22;66589;47.458;9.644;2023-03-29T11:32:46;15.40;58.70
38936;DHT22;66589;47.458;9.644;2023-03-29T11:41:33;15.70;59.40
38936;DHT22;66589;47.458;9.644;2023-03-29T11:46:51;15.50;58.40
38936;DHT22;66589;47.458;9.644;2023-03-29T11:54:57;15.50;58.80
38936;DHT22;66589;47.458;9.644;2023-03-29T11:57:40;15.40;58.80
38936;DHT22;66589;47.458;9.644;2023-03-29T12:00:24;15.30;59.90
38936;DHT22;66589;47.458;9.644;2023-03-29T12:03:09;15.10;61.10
38936;DHT22;66589;47.458;9.644;2023-03-29T12:05:44;15.10;61.30
38936;DHT22;66589;47.458;9.644;2023-03-29T12:08:15;15.40;61.10
38936;DHT22;66589;47.458;9.644;2023-03-29T12:10:49;15.50;60.50
38936;DHT22;66589;47.458;9.644;2023-03-29T12:15:55;15.50;60.00
38936;DHT22;66589;47.458;9.644;2023-03-29T12:18:39;15.50;60.60
38936;DHT22;66589;47.458;9.644;2023-03-29T12:21:11;15.70;60.90
38936;DHT22;66589;47.458;9.644;2023-03-29T12:23:40;15.50;60.20
38936;DHT22;66589;47.458;9.644;2023-03-29T12:40:27;15.00;62.80
38936;DHT22;66589;47.458;9.644;2023-03-29T12:43:03;15.00;63.00
38936;DHT22;66589;47.458;9.644;2023-03-29T12:45:37;15.00;63.10
38936;DHT22;66589;47.458;9.644;2023-03-29T12:48:04;15.00;62.40
38936;DHT22;66589;47.458;9.644;2023-03-29T12:50:47;14.90;61.90
38936;DHT22;66589;47.458;9.644;2023-03-29T12:53:30;15.00;64.20
38936;DHT22;66589;47.458;9.644;2023-03-29T13:01:23;14.60;66.20
38936;DHT22;66589;47.458;9.644;2023-03-29T13:03:51;14.60;65.60
38936;DHT22;66589;47.458;9.644;2023-03-29T13:14:24;15.20;63.70
38936;DHT22;66589;47.458;9.644;2023-03-29T13:16:52;15.50;63.90
38936;DHT22;66589;47.458;9.644;2023-03-29T13:28:28;16.30;60.90
38936;DHT22;66589;47.458;9.644;2023-03-29T13:34:35;16.70;60.30
38936;DHT22;66589;47.458;9.644;2023-03-29T13:39:48;16.70;60.20
38936;DHT22;66589;47.458;9.644;2023-03-29T13:42:25;16.90;59.20
38936;DHT22;66589;47.458;9.644;2023-03-29T13:45:26;16.90;59.50
38936;DHT22;66589;47.458;9.644;2023-03-29T13:48:20;17.00;59.90
38936;DHT22;66589;47.458;9.644;2023-03-29T13:50:57;17.00;58.80
38936;DHT22;66589;47.458;9.644;2023-03-29T13:53:33;17.00;58.60
38936;DHT22;66589;47.458;9.644;2023-03-29T13:55:59;17.10;59.40
38936;DHT22;66589;47.458;9.644;2023-03-29T13:58:37;17.20;56.60
38936;DHT22;66589;47.458;9.644;2023-03-29T14:03:50;17.10;58.00
38936;DHT22;66589;47.458;9.644;2023-03-29T14:06:23;17.10;58.60
38936;DHT22;66589;47.458;9.644;2023-03-29T14:08:50;17.00;57.30
38936;DHT22;66589;47.458;9.644;2023-03-29T14:11:25;16.90;59.00
38936;DHT22;66589;47.458;9.644;2023-03-29T14:13:56;17.00;57.90
38936;DHT22;66589;47.458;9.644;2023-03-29T14:16:25;17.00;57.80
38936;DHT22;66589;47.458;9.644;2023-03-29T14:18:51;17.00;58.50
38936;DHT22;66589;47.458;9.644;2023-03-29T14:21:19;17.30;59.00
38936;DHT22;66589;47.458;9.644;2023-03-29T14:23:52;17.30;58.50
38936;DHT22;66589;47.458;9.644;2023-03-29T14:26:20;17.40;58.00
38936;DHT22;66589;47.458;9.644;2023-03-29T14:28:51;17.40;58.40
38936;DHT22;66589;47.458;9.644;2023-03-29T14:31:19;17.20;58.00
38936;DHT22;66589;47.458;9.644;2023-03-29T14:33:54;17.10;58.20
38936;DHT22;66589;47.458;9.644;2023-03-29T14:36:20;16.80;59.30
38936;DHT22;66589;47.458;9.644;2023-03-29T14:38:59;16.80;58.80
38936;DHT22;66589;47.458;9.644;2023-03-29T14:41:30;16.80;58.70
38936;DHT22;66589;47.458;9.644;2023-03-29T14:43:56;16.80;59.50
38936;DHT22;66589;47.458;9.644;2023-03-29T14:46:23;16.90;59.70
38936;DHT22;66589;47.458;9.644;2023-03-29T14:48:50;17.10;58.70
38936;DHT22;66589;47.458;9.644;2023-03-29T14:51:16;17.10;59.10
38936;DHT22;66589;47.458;9.644;2023-03-29T14:53:43;17.30;58.50
38936;DHT22;66589;47.458;9.644;2023-03-29T14:56:12;17.30;58.60
38936;DHT22;66589;47.458;9.644;2023-03-29T14:58:43;17.30;59.20
38936;DHT22;66589;47.458;9.644;2023-03-29T15:01:17;17.30;59.30
38936;DHT22;66589;47.458;9.644;2023-03-29T15:03:52;17.30;59.80
38936;DHT22;66589;47.458;9.644;2023-03-29T15:06:18;17.30;59.40
38936;DHT22;66589;47.458;9.644;2023-03-29T15:08:45;17.20;58.80
38936;DHT22;66589;47.458;9.644;2023-03-29T15:11:32;17.20;59.70
38936;DHT22;66589;47.458;9.644;2023-03-29T15:14:03;17.10;58.50
38936;DHT22;66589;47.458;9.644;2023-03-29T15:16:30;17.00;59.90
38936;DHT22;66589;47.458;9.644;2023-03-29T15:18:57;16.90;58.90
38936;DHT22;66589;47.458;9.644;2023-03-29T15:21:33;16.80;59.10
38936;DHT22;66589;47.458;9.644;2023-03-29T15:24:01;16.90;59.70
38936;DHT22;66589;47.458;9.644;2023-03-29T15:26:34;16.70;60.00
38936;DHT22;66589;47.458;9.644;2023-03-29T15:29:13;16.60;59.70
38936;DHT22;66589;47.458;9.644;2023-03-29T15:31:42;16.50;59.80
38936;DHT22;66589;47.458;9.644;2023-03-29T15:34:28;16.70;60.10
38936;DHT22;66589;47.458;9.644;2023-03-29T15:36:55;16.80;60.00
38936;DHT22;66589;47.458;9.644;2023-03-29T15:39:24;16.90;59.80
38936;DHT22;66589;47.458;9.644;2023-03-29T15:41:52;17.00;59.00
38936;DHT22;66589;47.458;9.644;2023-03-29T15:44:32;17.00;59.20
38936;DHT22;66589;47.458;9.644;2023-03-29T15:46:57;17.00;59.80
38936;DHT22;66589;47.458;9.644;2023-03-29T15:49:24;17.00;60.30
38936;DHT22;66589;47.458;9.644;2023-03-29T15:51:50;16.90;59.40
38936;DHT22;66589;47.458;9.644;2023-03-29T15:54:21;16.80;60.20
38936;DHT22;66589;47.458;9.644;2023-03-29T15:57:12;16.70;60.20
38936;DHT22;66589;47.458;9.644;2023-03-29T15:59:39;16.60;60.20
38936;DHT22;66589;47.458;9.644;2023-03-29T16:02:05;16.50;60.00
38936;DHT22;66589;47.458;9.644;2023-03-29T16:04:32;16.50;60.90
38936;DHT22;66589;47.458;9.644;2023-03-29T16:06:57;16.40;59.80
38936;DHT22;66589;47.458;9.644;2023-03-29T16:09:23;16.40;60.60
38936;DHT22;66589;47.458;9.644;2023-03-29T16:11:50;16.40;61.00
38936;DHT22;66589;47.458;9.644;2023-03-29T16:14:23;16.30;60.40
38936;DHT22;66589;47.458;9.644;2023-03-29T16:16:50;16.20;61.00
38936;DHT22;66589;47.458;9.644;2023-03-29T16:19:17;16.10;61.50
38936;DHT22;66589;47.458;9.644;2023-03-29T16:21:43;16.10;60.50
38936;DHT22;66589;47.458;9.644;2023-03-29T16:24:14;16.20;60.90
38936;DHT22;66589;47.458;9.644;2023-03-29T16:26:41;16.10;60.90
38936;DHT22;66589;47.458;9.644;2023-03-29T16:29:07;16.00;61.50
38936;DHT22;66589;47.458;9.644;2023-03-29T16:31:33;16.00;61.70
38936;DHT22;66589;47.458;9.644;2023-03-29T16:33:58;16.00;61.10
38936;DHT22;66589;47.458;9.644;2023-03-29T16:36:24;15.90;61.70
38936;DHT22;66589;47.458;9.644;2023-03-29T16:38:50;16.00;62.10
38936;DHT22;66589;47.458;9.644;2023-03-29T16:41:16;16.00;61.50
38936;DHT22;66589;47.458;9.644;2023-03-29T16:43:42;15.90;62.30
38936;DHT22;66589;47.458;9.644;2023-03-29T16:46:09;15.90;63.00
38936;DHT22;66589;47.458;9.644;2023-03-29T16:48:35;15.80;62.40
38936;DHT22;66589;47.458;9.644;2023-03-29T16:51:01;15.80;62.00
38936;DHT22;66589;47.458;9.644;2023-03-29T16:53:28;15.80;61.80
38936;DHT22;66589;47.458;9.644;2023-03-29T16:55:55;15.80;61.80
38936;DHT22;66589;47.458;9.644;2023-03-29T16:58:21;15.90;62.40
38936;DHT22;66589;47.458;9.644;2023-03-29T17:00:49;15.80;61.50
38936;DHT22;66589;47.458;9.644;2023-03-29T17:03:19;15.80;62.90
38936;DHT22;66589;47.458;9.644;2023-03-29T17:05:52;15.70;62.30
38936;DHT22;66589;47.458;9.644;2023-03-29T17:08:21;15.80;61.90
38936;DHT22;66589;47.458;9.644;2023-03-29T17:10:51;15.80;61.90
38936;DHT22;66589;47.458;9.644;2023-03-29T17:13:17;15.70;62.20
38936;DHT22;66589;47.458;9.644;2023-03-29T17:15:42;15.70;62.20
38936;DHT22;66589;47.458;9.644;2023-03-29T17:18:08;15.70;62.00
38936;DHT22;66589;47.458;9.644;2023-03-29T17:20:37;15.70;62.30
38936;DHT22;66589;47.458;9.644;2023-03-29T17:23:03;15.60;62.80
38936;DHT22;66589;47.458;9.644;2023-03-29T17:25:29;15.60;63.60
38936;DHT22;66589;47.458;9.644;2023-03-29T17:27:54;15.50;63.40
38936;DHT22;66589;47.458;9.644;2023-03-29T17:30:20;15.50;64.40
38936;DHT22;66589;47.458;9.644;2023-03-29T17:32:46;15.50;63.80
38936;DHT22;66589;47.458;9.644;2023-03-29T17:35:12;15.40;64.00
38936;DHT22;66589;47.458;9.644;2023-03-29T17:37:37;15.40;65.30
38936;DHT22;66589;47.458;9.644;2023-03-29T17:40:04;15.30;66.60
38936;DHT22;66589;47.458;9.644;2023-03-29T17:42:39;15.30;67.10
38936;DHT22;66589;47.458;9.644;2023-03-29T17:45:05;15.30;66.00